Time;durP1;ratioP1;P1;durP2;ratioP2;P2;SDS_P1;SDS_P2;PMS_P1;PMS_P2;Temp;Humidity;BMP_temperature;BMP_pressure;BME280_temperature;BME280_humidity;BME280_pressure;Samples;Min_cycle;Max_cycle;Signal;HPM_P1;HPM_P2
2023/03/19 00:01:44;;;;;;;2.08;1.80;;;;;;;12.75;69.84;100960.34;5071246;28;20025;-65
2023/03/19 00:04:10;;;;;;;4.15;1.77;;;;;;;12.82;69.61;100971.28;5071206;28;20032;-65
2023/03/19 00:06:35;;;;;;;2.00;1.80;;;;;;;12.79;69.87;100963.44;5070687;28;20043;-65
2023/03/19 00:09:01;;;;;;;2.50;1.65;;;;;;;12.81;69.96;100961.25;5061558;28;20025;-65
2023/03/19 00:11:26;;;;;;;1.85;1.58;;;;;;;12.77;69.81;100971.22;5050782;28;20105;-65
2023/03/19 00:13:52;;;;;;;2.15;1.50;;;;;;;12.76;69.88;100958.41;5059286;28;20085;-64
2023/03/19 00:16:17;;;;;;;2.97;1.55;;;;;;;12.70;70.16;100968.66;5051882;28;20076;-65
2023/03/19 00:18:42;;;;;;;4.10;1.70;;;;;;;12.68;70.15;100972.81;5047070;28;20407;-64
2023/03/19 00:21:08;;;;;;;3.70;1.77;;;;;;;12.69;70.48;100980.06;5052247;28;20033;-65
2023/03/19 00:23:35;;;;;;;2.92;1.70;;;;;;;12.69;70.20;100968.91;5048566;28;20069;-65
2023/03/19 00:26:00;;;;;;;2.45;1.83;;;;;;;12.72;70.49;100977.56;5055309;28;20032;-65
2023/03/19 00:28:26;;;;;;;4.22;2.00;;;;;;;12.72;70.42;100979.53;5066172;28;20471;-65
2023/03/19 00:30:52;;;;;;;3.63;2.15;;;;;;;12.71;70.47;100986.22;5062731;28;20769;-66
2023/03/19 00:33:18;;;;;;;3.85;2.03;;;;;;;12.67;70.59;100987.84;5067960;28;20032;-65
2023/03/19 00:35:44;;;;;;;3.20;1.92;;;;;;;12.72;70.37;100985.94;5067253;28;20033;-65
2023/03/19 00:38:12;;;;;;;4.22;1.92;;;;;;;12.71;70.71;100977.84;5067810;28;20097;-65
2023/03/19 00:40:37;;;;;;;2.13;1.75;;;;;;;12.76;70.62;100984.31;5067904;28;20025;-65
2023/03/19 00:43:03;;;;;;;3.05;2.00;;;;;;;12.73;70.88;100984.84;5068649;28;20039;-65
2023/03/19 00:45:29;;;;;;;3.95;2.20;;;;;;;12.68;70.55;100982.00;5054486;28;20056;-65
2023/03/19 00:47:57;;;;;;;2.47;2.10;;;;;;;12.68;70.79;100983.94;5048332;28;20355;-65
2023/03/19 00:50:24;;;;;;;3.58;2.10;;;;;;;12.66;71.30;100980.59;5048051;28;20036;-65
2023/03/19 00:52:51;;;;;;;3.63;2.20;;;;;;;12.63;71.18;100987.53;5047438;28;20021;-65
2023/03/19 00:55:19;;;;;;;3.55;2.15;;;;;;;12.72;70.74;100983.16;5060919;28;20135;-65
2023/03/19 00:57:44;;;;;;;3.30;2.47;;;;;;;12.69;71.11;100980.91;5066684;28;20040;-66
2023/03/19 01:00:13;;;;;;;3.13;2.47;;;;;;;12.66;70.92;100988.97;5064729;28;20037;-65
2023/03/19 01:02:39;;;;;;;3.67;2.40;;;;;;;12.62;70.96;100991.44;5053891;28;20045;-64
2023/03/19 01:05:05;;;;;;;4.25;2.42;;;;;;;12.65;71.24;100987.25;5048084;28;20025;-64
2023/03/19 01:07:33;;;;;;;3.42;2.28;;;;;;;12.61;70.95;100988.88;5046842;28;21527;-65
2023/03/19 01:09:58;;;;;;;3.38;2.38;;;;;;;12.63;71.00;100983.91;5062674;28;20029;-65
2023/03/19 01:12:23;;;;;;;5.05;2.58;;;;;;;12.62;70.92;100988.63;5052696;28;20136;-65
2023/03/19 01:14:49;;;;;;;3.92;2.40;;;;;;;12.61;70.50;100984.16;5066939;28;20033;-65
2023/03/19 01:17:14;;;;;;;3.00;2.50;;;;;;;12.62;70.97;100982.22;5058700;28;20035;-65
2023/03/19 01:19:39;;;;;;;3.63;2.65;;;;;;;12.62;70.97;100985.03;5069236;28;20025;-65
2023/03/19 01:22:05;;;;;;;4.75;2.45;;;;;;;12.62;70.82;100985.03;5058293;28;20059;-65
2023/03/19 01:24:32;;;;;;;3.20;2.38;;;;;;;12.60;71.29;100990.00;5064313;28;20024;-66
2023/03/19 01:26:58;;;;;;;3.22;2.60;;;;;;;12.61;70.95;100983.31;5067311;28;20032;-66
2023/03/19 01:29:23;;;;;;;2.58;2.30;;;;;;;12.53;71.32;100981.84;5069949;28;20028;-65
2023/03/19 01:31:48;;;;;;;3.75;2.80;;;;;;;12.55;71.81;100989.97;5069634;28;20024;-65
2023/03/19 01:34:14;;;;;;;3.28;2.65;;;;;;;12.50;71.63;100986.00;5068661;28;20107;-65
2023/03/19 01:36:39;;;;;;;4.18;2.90;;;;;;;12.50;71.38;100990.75;5066729;28;20028;-65
2023/03/19 01:39:05;;;;;;;3.17;2.80;;;;;;;12.49;71.90;100981.53;5071000;28;20028;-65
2023/03/19 01:41:30;;;;;;;4.95;3.05;;;;;;;12.47;71.88;100983.75;5070004;28;20020;-66
2023/03/19 01:43:56;;;;;;;5.03;2.97;;;;;;;12.49;71.84;100981.53;5066003;28;20052;-66
2023/03/19 01:46:32;;;;;;;4.18;3.40;;;;;;;12.54;71.77;100983.56;5068554;28;20058;-66
2023/03/19 01:48:59;;;;;;;5.10;3.22;;;;;;;12.45;71.65;100977.59;5050643;28;20043;-65
2023/03/19 01:51:28;;;;;;;4.13;3.05;;;;;;;12.43;71.90;100988.16;5062489;28;20036;-65
2023/03/19 01:54:01;;;;;;;5.85;3.05;;;;;;;12.42;72.49;100994.84;5069380;28;20040;-65
2023/03/19 01:56:31;;;;;;;3.95;2.67;;;;;;;12.40;72.39;100983.13;5068793;28;20028;-65
2023/03/19 01:59:01;;;;;;;3.35;2.88;;;;;;;12.41;72.13;100984.78;5069346;28;20040;-65
2023/03/19 02:01:30;;;;;;;3.10;2.80;;;;;;;12.42;72.41;100985.66;5065711;28;20071;-66
2023/03/19 02:03:58;;;;;;;4.65;2.70;;;;;;;12.42;72.22;100980.94;5065414;28;20029;-65
2023/03/19 02:06:23;;;;;;;3.83;2.70;;;;;;;12.44;72.07;100984.25;5050168;28;20057;-66
2023/03/19 02:08:50;;;;;;;3.33;2.83;;;;;;;12.44;71.92;100984.25;5066370;28;20055;-66
2023/03/19 02:11:17;;;;;;;3.00;2.53;;;;;;;12.41;72.35;100989.50;5067960;28;20056;-65
2023/03/19 02:13:43;;;;;;;3.90;2.80;;;;;;;12.46;71.89;100984.88;5069432;28;20042;-65
2023/03/19 02:16:08;;;;;;;3.75;3.08;;;;;;;12.46;72.19;100981.25;5070321;28;20021;-65
2023/03/19 02:18:35;;;;;;;4.60;3.20;;;;;;;12.47;72.04;100983.75;5061260;28;20107;-66
2023/03/19 02:21:14;;;;;;;7.88;4.00;;;;;;;12.45;72.36;100985.09;5067027;28;20043;-65
2023/03/19 02:23:54;;;;;;;3.33;3.03;;;;;;;12.42;72.62;100978.13;5068605;28;20025;-66
2023/03/19 02:26:22;;;;;;;3.97;3.25;;;;;;;12.42;72.57;100992.06;5070077;28;20029;-66
2023/03/19 02:28:49;;;;;;;3.65;3.15;;;;;;;12.41;72.36;100993.13;5067460;28;20859;-65
2023/03/19 02:31:16;;;;;;;7.45;3.33;;;;;;;12.40;72.33;100990.63;5056571;28;20029;-65
2023/03/19 02:33:41;;;;;;;3.90;3.40;;;;;;;12.40;72.64;100997.03;5066779;28;20024;-65
2023/03/19 02:36:16;;;;;;;6.65;3.50;;;;;;;12.43;72.52;100990.13;5069315;28;20029;-65
2023/03/19 02:38:43;;;;;;;5.93;3.15;;;;;;;12.39;72.52;100986.16;5064626;28;20035;-65
2023/03/19 02:41:09;;;;;;;6.43;3.40;;;;;;;12.42;72.37;100994.00;5064742;28;20051;-65
2023/03/19 02:43:37;;;;;;;4.80;3.70;;;;;;;12.42;72.53;100996.78;5068934;28;20024;-65
2023/03/19 02:46:05;;;;;;;6.57;4.00;;;;;;;12.41;72.70;100990.34;5071996;28;20495;-65
2023/03/19 02:48:31;;;;;;;5.22;3.70;;;;;;;12.39;72.92;101002.88;5073607;28;20067;-65
2023/03/19 02:50:57;;;;;;;4.25;3.67;;;;;;;12.40;72.90;101005.38;5070086;28;20471;-65
2023/03/19 02:53:22;;;;;;;3.80;3.40;;;;;;;12.42;72.85;101002.34;5071787;28;20059;-65
2023/03/19 02:55:47;;;;;;;4.10;3.63;;;;;;;12.40;73.04;101001.75;5061100;28;20564;-65
2023/03/19 02:58:13;;;;;;;4.22;3.53;;;;;;;12.38;73.05;100996.47;5053472;28;20065;-65
2023/03/19 03:00:40;;;;;;;5.22;3.83;;;;;;;12.38;72.87;101002.03;5053584;28;20075;-65
2023/03/19 03:03:06;;;;;;;6.00;4.22;;;;;;;12.38;73.10;101004.81;5073319;28;20500;-65
2023/03/19 03:05:32;;;;;;;4.38;3.72;;;;;;;12.36;73.00;101008.97;5071287;28;20036;-65
2023/03/19 03:07:58;;;;;;;4.65;4.00;;;;;;;12.35;73.15;101012.84;5069968;28;20042;-65
2023/03/19 03:10:23;;;;;;;4.75;4.30;;;;;;;12.34;73.15;101014.78;5072865;28;20416;-65
2023/03/19 03:12:49;;;;;;;4.80;3.72;;;;;;;12.37;72.90;101003.13;5060493;28;20040;-66
2023/03/19 03:15:14;;;;;;;5.03;4.20;;;;;;;12.38;72.91;101007.59;5052485;28;20398;-66
2023/03/19 03:17:41;;;;;;;7.35;4.40;;;;;;;12.36;73.48;101003.38;5060390;28;20032;-65
2023/03/19 03:20:08;;;;;;;6.78;4.15;;;;;;;12.34;73.29;101006.44;5072280;28;20012;-65
2023/03/19 03:22:33;;;;;;;4.93;4.38;;;;;;;12.34;73.35;101009.22;5056498;28;20033;-65
2023/03/19 03:24:59;;;;;;;5.40;4.57;;;;;;;12.30;73.24;100996.94;5066485;28;20031;-65
2023/03/19 03:27:24;;;;;;;5.30;4.60;;;;;;;12.31;73.22;101006.13;5073723;28;20040;-66
2023/03/19 03:29:49;;;;;;;5.13;4.10;;;;;;;12.31;73.43;101009.75;5062674;28;20029;-65
2023/03/19 03:32:15;;;;;;;4.65;4.25;;;;;;;12.29;73.39;101006.38;5060719;28;20104;-65
2023/03/19 03:34:41;;;;;;;5.63;4.43;;;;;;;12.27;73.49;101008.59;5057149;28;20058;-66
2023/03/19 03:37:06;;;;;;;5.97;4.10;;;;;;;12.34;73.23;101002.78;5066793;28;20029;-66
2023/03/19 03:39:31;;;;;;;5.43;4.68;;;;;;;12.28;73.44;101008.31;5055858;28;20120;-64
2023/03/19 03:41:57;;;;;;;4.88;4.38;;;;;;;12.28;72.96;100999.13;5054902;28;20439;-64
2023/03/19 03:44:22;;;;;;;4.93;4.43;;;;;;;12.22;73.08;101001.03;5063279;28;20052;-65
2023/03/19 03:46:48;;;;;;;6.40;4.47;;;;;;;12.23;72.96;101010.22;5060595;28;20476;-65
2023/03/19 03:49:13;;;;;;;7.47;4.65;;;;;;;12.17;72.81;101011.22;5070436;28;20037;-64
2023/03/19 03:51:38;;;;;;;7.45;4.60;;;;;;;12.17;72.93;101014.84;5071315;28;20043;-64
2023/03/19 03:54:04;;;;;;;5.88;4.95;;;;;;;12.16;73.02;101021.53;5078192;28;20025;-64
2023/03/19 03:56:30;;;;;;;7.55;5.10;;;;;;;12.16;73.32;101020.69;5074924;28;20547;-65
2023/03/19 03:58:55;;;;;;;5.18;4.60;;;;;;;12.13;73.11;101023.97;5071766;28;20430;-64
2023/03/19 04:01:21;;;;;;;6.25;5.03;;;;;;;12.10;72.97;101025.34;5072056;28;20024;-65
2023/03/19 04:03:46;;;;;;;5.57;4.78;;;;;;;12.09;73.23;101026.44;5064748;28;20037;-65
2023/03/19 04:06:17;;;;;;;6.97;5.45;;;;;;;12.13;73.11;101029.56;5072545;28;20036;-64
2023/03/19 04:08:43;;;;;;;6.88;5.05;;;;;;;12.09;73.29;101029.22;5072390;28;20036;-64
2023/03/19 04:11:08;;;;;;;5.20;4.57;;;;;;;12.01;73.26;101021.34;5064385;28;20044;-65
2023/03/19 04:13:35;;;;;;;6.00;4.97;;;;;;;12.02;72.83;101023.88;5056372;28;20043;-64
2023/03/19 04:16:05;;;;;;;5.45;4.90;;;;;;;12.00;73.27;101023.28;5071782;28;20029;-64
2023/03/19 04:18:31;;;;;;;5.82;5.22;;;;;;;11.97;73.35;101022.94;5071393;28;20017;-64
2023/03/19 04:20:56;;;;;;;5.70;4.78;;;;;;;11.96;73.08;101019.34;5064958;28;20386;-64
2023/03/19 04:23:22;;;;;;;6.28;5.03;;;;;;;11.93;73.14;101021.78;5070240;28;20039;-65
2023/03/19 04:25:47;;;;;;;7.35;4.82;;;;;;;11.89;73.02;101027.03;5064789;28;20365;-64
2023/03/19 04:28:13;;;;;;;6.55;5.00;;;;;;;11.89;72.99;101028.97;5068060;28;20110;-65
2023/03/19 04:30:38;;;;;;;6.78;5.03;;;;;;;11.83;73.14;101025.28;5065335;28;20104;-64
2023/03/19 04:33:03;;;;;;;5.32;4.80;;;;;;;11.81;73.13;101027.44;5069493;28;20086;-65
2023/03/19 04:35:29;;;;;;;5.28;4.78;;;;;;;11.85;73.04;101023.06;5065621;28;20033;-65
2023/03/19 04:37:54;;;;;;;6.22;5.20;;;;;;;11.78;73.49;101025.16;5068105;28;20027;-65
2023/03/19 04:40:20;;;;;;;6.60;5.07;;;;;;;11.78;73.32;101014.03;5065897;28;20047;-65
2023/03/19 04:42:45;;;;;;;5.50;5.00;;;;;;;11.75;73.03;101020.97;5070654;28;20036;-65
2023/03/19 04:45:10;;;;;;;8.30;5.25;;;;;;;11.74;73.16;101016.50;5066453;28;20020;-65
2023/03/19 04:47:36;;;;;;;7.05;5.30;;;;;;;11.73;73.42;101033.44;5054222;28;20097;-65
2023/03/19 04:50:01;;;;;;;6.75;5.13;;;;;;;11.70;73.11;101022.81;5069215;28;20020;-65
2023/03/19 04:52:28;;;;;;;7.00;5.20;;;;;;;11.70;72.95;101028.38;5069239;28;20539;-65
2023/03/19 04:54:53;;;;;;;6.63;5.38;;;;;;;11.70;73.34;101025.59;5068420;28;20430;-65
2023/03/19 04:57:18;;;;;;;6.45;5.20;;;;;;;11.69;73.21;101032.28;5055079;28;20020;-65
2023/03/19 04:59:43;;;;;;;7.38;5.70;;;;;;;11.61;73.10;101035.50;5066006;28;20115;-65
2023/03/19 05:02:09;;;;;;;6.22;5.22;;;;;;;11.62;73.09;101042.72;5057187;28;20028;-65
2023/03/19 05:04:34;;;;;;;5.60;4.72;;;;;;;11.65;73.23;101039.44;5067389;28;20056;-65
2023/03/19 05:06:59;;;;;;;9.10;5.93;;;;;;;11.62;73.20;101045.50;5066957;28;20033;-65
2023/03/19 05:09:25;;;;;;;6.47;5.15;;;;;;;11.62;73.03;101046.34;5067873;28;20078;-65
2023/03/19 05:11:50;;;;;;;9.15;5.78;;;;;;;11.59;72.96;101048.78;5066541;28;20061;-65
2023/03/19 05:14:15;;;;;;;6.63;5.45;;;;;;;11.54;73.06;101053.19;5067377;28;20036;-65
2023/03/19 05:16:41;;;;;;;7.05;6.10;;;;;;;11.53;73.22;101057.06;5067173;28;20998;-64
2023/03/19 05:19:07;;;;;;;6.43;5.80;;;;;;;11.54;73.50;101058.75;5055313;28;20029;-65
2023/03/19 05:21:32;;;;;;;7.80;6.60;;;;;;;11.57;73.42;101059.34;5056279;28;20024;-64
2023/03/19 05:23:57;;;;;;;7.28;6.10;;;;;;;11.55;73.55;101060.44;5062725;28;20197;-64
2023/03/19 05:26:23;;;;;;;8.38;5.93;;;;;;;11.55;73.42;101066.00;5070203;28;20032;-65
2023/03/19 05:28:48;;;;;;;6.65;5.95;;;;;;;11.49;73.06;101060.63;5064600;28;20105;-65
2023/03/19 05:31:14;;;;;;;6.50;5.90;;;;;;;11.48;72.95;101065.34;5055334;28;20040;-65
2023/03/19 05:33:40;;;;;;;6.70;6.05;;;;;;;11.44;73.09;101061.38;5050129;28;20083;-65
2023/03/19 05:36:06;;;;;;;7.32;6.10;;;;;;;11.43;72.34;101069.97;5050695;28;20021;-65
2023/03/19 05:38:31;;;;;;;6.72;6.10;;;;;;;11.39;72.22;101064.06;5051838;28;20594;-65
2023/03/19 05:41:02;;;;;;;7.15;5.88;;;;;;;11.41;72.29;101074.94;5064535;28;20028;-65
2023/03/19 05:43:28;;;;;;;6.97;6.07;;;;;;;11.39;72.29;101072.41;5070178;28;20024;-64
2023/03/19 05:45:53;;;;;;;6.68;6.00;;;;;;;11.39;72.22;101074.34;5069177;28;20047;-64
2023/03/19 05:48:19;;;;;;;6.55;5.88;;;;;;;11.37;72.35;101077.38;5069500;28;20444;-64
2023/03/19 05:50:44;;;;;;;9.80;7.00;;;;;;;11.33;72.34;101076.22;5054370;28;20047;-65
2023/03/19 05:53:10;;;;;;;8.15;6.40;;;;;;;11.33;72.81;101081.75;5070147;28;20463;-65
2023/03/19 05:55:35;;;;;;;7.18;6.05;;;;;;;11.31;72.45;101081.16;5068641;28;20027;-65
2023/03/19 05:58:00;;;;;;;8.80;6.75;;;;;;;11.27;72.31;101080.81;5066399;28;20024;-65
2023/03/19 06:00:26;;;;;;;7.40;6.40;;;;;;;11.27;72.34;101077.19;5054910;28;20112;-65
2023/03/19 06:02:53;;;;;;;8.15;6.53;;;;;;;11.22;71.95;101082.69;5049867;28;20032;-65
2023/03/19 06:05:18;;;;;;;8.52;7.18;;;;;;;11.18;72.80;101081.50;5052617;28;20108;-65
2023/03/19 06:07:44;;;;;;;8.00;7.20;;;;;;;11.18;73.43;101081.50;5061232;28;20111;-65
2023/03/19 06:10:10;;;;;;;8.48;7.43;;;;;;;11.17;73.45;101090.94;5068193;28;20031;-64
2023/03/19 06:12:35;;;;;;;9.18;7.32;;;;;;;11.17;73.55;101088.16;5070709;28;20035;-65
2023/03/19 06:15:02;;;;;;;11.10;7.75;;;;;;;11.19;73.54;101097.91;5069297;28;20369;-65
2023/03/19 06:17:27;;;;;;;8.82;7.30;;;;;;;11.18;74.07;101106.50;5070144;28;20028;-65
2023/03/19 06:19:52;;;;;;;9.18;7.55;;;;;;;11.20;74.23;101098.75;5064141;28;20103;-65
2023/03/19 06:22:18;;;;;;;8.73;7.07;;;;;;;11.21;74.15;101106.00;5071820;28;20343;-65
2023/03/19 06:24:43;;;;;;;9.07;8.15;;;;;;;11.20;74.22;101107.94;5069786;28;20043;-65
2023/03/19 06:27:08;;;;;;;8.63;7.80;;;;;;;11.21;74.33;101112.41;5072935;28;20070;-65
2023/03/19 06:29:34;;;;;;;8.77;7.90;;;;;;;11.26;74.47;101111.66;5071984;28;20039;-64
2023/03/19 06:31:59;;;;;;;9.18;7.93;;;;;;;11.19;75.13;101116.53;5070896;28;20039;-64
2023/03/19 06:34:25;;;;;;;9.38;8.23;;;;;;;11.17;75.33;101124.28;5073098;28;20039;-64
2023/03/19 06:36:52;;;;;;;11.90;9.02;;;;;;;11.18;75.37;101120.41;5071422;28;20043;-64
2023/03/19 06:39:18;;;;;;;9.55;8.48;;;;;;;11.25;75.03;101121.09;5066005;28;20028;-64
2023/03/19 06:41:43;;;;;;;11.23;9.15;;;;;;;11.21;74.99;101119.91;5070589;28;20063;-64
2023/03/19 06:44:08;;;;;;;11.18;8.70;;;;;;;11.21;75.31;101126.31;5071004;28;20036;-65
2023/03/19 06:46:34;;;;;;;10.18;8.88;;;;;;;11.22;75.18;101130.75;5073590;28;20033;-64
2023/03/19 06:48:59;;;;;;;9.40;8.57;;;;;;;11.28;75.05;101140.03;5073175;28;20035;-64
2023/03/19 06:51:26;;;;;;;12.60;8.57;;;;;;;11.28;75.18;101134.47;5059974;28;20114;-64
2023/03/19 06:53:52;;;;;;;9.35;8.40;;;;;;;11.31;75.20;101136.75;5054645;28;20029;-64
2023/03/19 06:56:17;;;;;;;9.95;8.75;;;;;;;11.29;75.01;101133.38;5054023;28;20376;-64
2023/03/19 06:58:43;;;;;;;10.98;9.80;;;;;;;11.27;75.11;101136.41;5060197;28;20559;-64
2023/03/19 07:01:08;;;;;;;11.30;9.32;;;;;;;11.26;75.53;101134.72;5072054;28;20141;-64
2023/03/19 07:03:33;;;;;;;10.05;9.02;;;;;;;11.34;75.50;101140.97;5073400;28;20032;-64
2023/03/19 07:05:59;;;;;;;10.52;9.05;;;;;;;11.40;75.43;101142.75;5072836;28;20031;-64
2023/03/19 07:08:28;;;;;;;11.30;8.73;;;;;;;11.40;75.59;101148.31;5070227;28;20060;-65
2023/03/19 07:10:54;;;;;;;10.77;9.68;;;;;;;11.46;75.37;101145.34;5053302;28;20044;-64
2023/03/19 07:13:20;;;;;;;13.18;9.60;;;;;;;11.47;75.53;101149.81;5054508;28;20040;-64
2023/03/19 07:15:46;;;;;;;10.57;9.48;;;;;;;11.50;75.71;101149.31;5063611;28;20043;-64
2023/03/19 07:18:11;;;;;;;12.25;9.52;;;;;;;11.50;75.75;101160.41;5055398;28;20033;-65
2023/03/19 07:20:36;;;;;;;11.45;9.27;;;;;;;11.53;75.57;101165.47;5058741;28;20086;-65
2023/03/19 07:23:02;;;;;;;11.70;10.02;;;;;;;11.57;75.77;101162.22;5069888;28;20498;-65
2023/03/19 07:25:27;;;;;;;10.50;9.40;;;;;;;11.63;75.51;101163.97;5069546;28;20479;-65
2023/03/19 07:27:53;;;;;;;11.30;9.40;;;;;;;11.66;75.54;101166.25;5067250;28;20033;-65
2023/03/19 07:30:18;;;;;;;12.48;9.60;;;;;;;11.69;75.18;101171.31;5068971;28;20111;-65
2023/03/19 07:32:43;;;;;;;10.98;9.35;;;;;;;11.70;75.83;101178.53;5057668;28;20071;-65
2023/03/19 07:35:09;;;;;;;11.05;9.80;;;;;;;11.81;75.40;101180.41;5067666;28;20052;-65
2023/03/19 07:37:39;;;;;;;10.50;9.50;;;;;;;11.76;75.77;101183.09;5070380;28;20032;-65
2023/03/19 07:40:06;;;;;;;12.02;9.93;;;;;;;11.86;75.27;101180.50;5069801;28;20039;-65
2023/03/19 07:42:31;;;;;;;12.07;9.13;;;;;;;11.93;74.93;101175.63;5070572;28;20028;-65
2023/03/19 07:44:56;;;;;;;11.77;9.65;;;;;;;12.02;75.04;101184.38;5070721;28;20031;-65
2023/03/19 07:47:22;;;;;;;10.70;9.30;;;;;;;12.11;73.90;101182.03;5070977;28;20028;-64
2023/03/19 07:49:47;;;;;;;11.85;8.73;;;;;;;12.20;74.05;101186.03;5068748;28;20402;-64
2023/03/19 07:52:17;;;;;;;13.18;8.18;;;;;;;12.29;73.70;101184.50;5070647;28;20047;-64
2023/03/19 07:54:46;;;;;;;12.80;7.70;;;;;;;12.35;73.86;101189.03;5068788;28;20029;-64
2023/03/19 07:57:11;;;;;;;13.18;7.88;;;;;;;12.36;72.73;101192.66;5060299;28;20471;-64
2023/03/19 07:59:37;;;;;;;14.57;8.27;;;;;;;12.38;72.96;101198.81;5069506;28;20087;-65
2023/03/19 08:02:03;;;;;;;16.95;10.07;;;;;;;12.37;72.64;101195.19;5055683;28;20032;-65
2023/03/19 08:04:28;;;;;;;18.42;8.93;;;;;;;12.36;72.50;101192.66;5051131;28;20025;-66
2023/03/19 08:06:54;;;;;;;13.70;8.60;;;;;;;12.33;72.48;101196.78;5065453;28;20036;-65
2023/03/19 08:09:19;;;;;;;12.43;7.72;;;;;;;12.35;71.89;101189.03;5061456;28;20131;-65
2023/03/19 08:11:45;;;;;;;17.45;8.20;;;;;;;12.39;71.88;101204.13;5031383;28;1049434;-63
2023/03/19 08:14:10;;;;;;;17.00;7.53;;;;;;;12.45;71.50;101202.25;5071937;28;20082;-66
2023/03/19 08:16:35;;;;;;;11.77;6.38;;;;;;;12.50;71.40;101197.63;5066140;28;20029;-65
2023/03/19 08:19:01;;;;;;;13.93;8.13;;;;;;;12.53;70.72;101211.00;5060778;28;20122;-65
2023/03/19 08:21:26;;;;;;;12.07;7.60;;;;;;;12.57;71.14;101202.13;5056109;28;20059;-66
2023/03/19 08:23:52;;;;;;;18.45;8.43;;;;;;;12.67;72.82;101210.63;5059869;28;20127;-69
2023/03/19 08:26:17;;;;;;;17.15;8.35;;;;;;;12.62;70.83;101207.78;5058082;28;20035;-65
2023/03/19 08:28:42;;;;;;;12.98;8.18;;;;;;;12.63;70.34;101210.31;5071160;28;20669;-66
2023/03/19 08:31:11;;;;;;;13.50;8.57;;;;;;;12.77;70.49;101211.63;5071152;28;20431;-66
2023/03/19 08:33:36;;;;;;;15.68;7.95;;;;;;;12.93;70.23;101218.22;5069138;28;20036;-66
2023/03/19 08:36:11;;;;;;;13.55;7.88;;;;;;;13.05;69.89;101217.22;5064770;28;20027;-66
2023/03/19 08:38:37;;;;;;;12.50;7.78;;;;;;;13.16;69.03;101219.84;5067379;28;20123;-66
2023/03/19 08:41:03;;;;;;;19.33;8.48;;;;;;;13.36;69.14;101226.78;5070797;28;20050;-67
2023/03/19 08:43:35;;;;;;;15.65;7.53;;;;;;;13.45;68.18;101217.72;5062715;28;20024;-66
2023/03/19 08:46:01;;;;;;;;;;;;;;;13.60;69.39;101224.56;5071858;28;20032;-68
2023/03/19 08:48:27;;;;;;;11.00;6.60;;;;;;;13.53;67.92;101232.28;5071326;28;20386;-67
2023/03/19 08:50:57;;;;;;;13.13;6.75;;;;;;;13.48;67.99;101222.78;5067667;27;20050;-67
2023/03/19 08:53:23;;;;;;;12.05;6.70;;;;;;;13.41;67.99;101230.50;5068410;28;20024;-67
2023/03/19 08:55:57;;;;;;;14.02;6.55;;;;;;;13.35;68.25;101231.53;5071463;28;20055;-67
2023/03/19 08:58:23;;;;;;;12.15;6.03;;;;;;;13.27;68.98;101249.56;5070389;28;20111;-67
2023/03/19 09:00:52;;;;;;;13.70;6.47;;;;;;;13.23;68.74;101242.00;5070578;28;20111;-67
2023/03/19 09:03:18;;;;;;;15.63;5.90;;;;;;;13.17;68.58;101237.44;5069615;28;20032;-66
2023/03/19 09:05:44;;;;;;;14.02;5.65;;;;;;;13.15;68.95;101239.66;5076340;28;20031;-66
2023/03/19 09:08:10;;;;;;;15.43;6.15;;;;;;;13.13;68.76;101247.44;5059838;28;20460;-67
2023/03/19 09:10:35;;;;;;;13.60;5.90;;;;;;;13.14;68.20;101246.31;5057151;28;20549;-67
2023/03/19 09:13:07;;;;;;;13.70;5.50;;;;;;;13.09;68.12;101249.91;5066826;28;20047;-67
2023/03/19 09:15:32;;;;;;;16.45;5.63;;;;;;;13.08;67.79;101255.72;5069408;28;20040;-69
2023/03/19 09:17:57;;;;;;;18.95;6.07;;;;;;;13.08;68.18;101261.28;5069151;28;20028;-67
2023/03/19 09:20:23;;;;;;;14.07;5.70;;;;;;;13.04;68.45;101260.97;5072935;28;20031;-67
2023/03/19 09:22:48;;;;;;;20.45;6.10;;;;;;;12.99;68.30;101258.97;5063271;28;20154;-68
2023/03/19 09:25:14;;;;;;;12.15;5.43;;;;;;;12.98;68.61;101257.28;5064989;28;20116;-67
2023/03/19 09:27:39;;;;;;;19.50;6.13;;;;;;;13.09;69.35;101263.00;5068731;28;20373;-67
2023/03/19 09:30:08;;;;;;;13.98;4.80;;;;;;;13.22;68.66;101265.38;5062558;28;20036;-66
2023/03/19 09:32:36;;;;;;;14.93;5.68;;;;;;;13.37;67.93;101264.75;5059744;28;20032;-67
2023/03/19 09:35:01;;;;;;;15.18;5.85;;;;;;;13.61;68.28;101270.84;5064492;28;20472;-68
2023/03/19 09:37:27;;;;;;;20.38;6.80;;;;;;;13.82;67.46;101278.31;5052749;28;20040;-67
2023/03/19 09:39:52;;;;;;;13.90;6.20;;;;;;;13.86;66.97;101271.09;5050326;28;20068;-68
2023/03/19 09:42:40;;;;;;;15.82;6.78;;;;;;;13.89;66.68;101284.53;5052029;28;20071;-68
2023/03/19 09:45:14;;;;;;;18.33;7.20;;;;;;;13.83;66.21;101281.94;5051335;28;20394;-67
2023/03/19 09:47:42;;;;;;;13.43;6.32;;;;;;;13.83;66.61;101282.78;5067374;28;20546;-65
2023/03/19 09:50:22;;;;;;;19.20;6.95;;;;;;;14.01;66.70;101281.56;5063601;28;20036;-65
2023/03/19 09:52:56;;;;;;;14.43;6.63;;;;;;;14.09;66.83;101278.28;5062045;28;20908;-65
2023/03/19 09:55:31;;;;;;;15.20;6.53;;;;;;;14.22;66.23;101283.41;5056231;28;20032;-66
2023/03/19 09:57:57;;;;;;;10.95;5.75;;;;;;;14.39;65.81;101274.88;5050353;28;20040;-66
2023/03/19 10:00:33;;;;;;;14.05;6.25;;;;;;;14.43;64.88;101283.56;5049700;28;20052;-67
2023/03/19 10:03:13;;;;;;;13.43;5.90;;;;;;;14.34;64.42;101291.59;5052785;28;20043;-66
2023/03/19 10:06:15;;;;;;;14.80;5.97;;;;;;;14.31;65.58;101288.50;5058513;28;20032;-65
2023/03/19 10:08:56;;;;;;;11.88;6.22;;;;;;;14.22;65.36;101285.34;5050045;28;20048;-65
2023/03/19 10:11:33;;;;;;;13.70;5.70;;;;;;;14.18;65.92;101289.78;5055955;28;20120;-65
2023/03/19 10:14:15;;;;;;;12.52;4.40;;;;;;;14.18;66.27;101290.63;5054142;28;20090;-66
2023/03/19 10:16:44;;;;;;;12.68;4.78;;;;;;;14.23;66.06;101289.84;5060528;28;20037;-65
2023/03/19 10:19:15;;;;;;;17.35;4.90;;;;;;;14.27;65.99;101291.00;5050158;28;20495;-65
2023/03/19 10:21:56;;;;;;;17.27;4.80;;;;;;;14.40;65.77;101292.47;5054588;28;20040;-65
2023/03/19 10:24:30;;;;;;;10.60;4.13;;;;;;;14.35;65.44;101284.06;5066083;28;20028;-65
2023/03/19 10:27:00;;;;;;;42.05;6.90;;;;;;;14.31;65.55;101289.34;5060149;28;20021;-66
2023/03/19 10:29:27;;;;;;;17.20;5.15;;;;;;;14.27;65.77;101296.59;5069383;28;20024;-61
2023/03/19 10:32:00;;;;;;;14.35;4.40;;;;;;;14.22;65.94;101291.78;5066383;28;20032;-67
2023/03/19 10:34:34;;;;;;;10.27;4.32;;;;;;;14.23;65.86;101295.44;5067038;28;20466;-65
2023/03/19 10:37:19;;;;;;;17.13;4.72;;;;;;;14.15;65.63;101293.13;5068523;28;20048;-63
2023/03/19 10:39:46;;;;;;;15.20;4.32;;;;;;;14.11;65.50;101292.81;5064460;28;20040;-63
2023/03/19 10:42:24;;;;;;;17.38;4.68;;;;;;;14.09;65.93;101299.78;5066547;28;20071;-64
2023/03/19 10:44:54;;;;;;;15.20;5.10;;;;;;;14.04;66.10;101296.94;5068536;28;20036;-65
2023/03/19 10:47:25;;;;;;;9.43;4.60;;;;;;;14.03;66.29;101298.03;5068842;28;20028;-66
2023/03/19 10:49:50;;;;;;;11.55;4.32;;;;;;;13.98;66.20;101307.19;5068063;28;20493;-65
2023/03/19 10:52:36;;;;;;;13.32;4.30;;;;;;;14.00;66.37;101308.63;5063037;28;20057;-66
2023/03/19 10:55:15;;;;;;;16.52;4.40;;;;;;;13.95;66.58;101311.38;5066457;28;20043;-66
2023/03/19 10:57:43;;;;;;;12.27;5.00;;;;;;;13.95;66.10;101305.81;5059937;28;20033;-67
2023/03/19 11:00:17;;;;;;;11.38;4.53;;;;;;;13.98;66.86;101304.41;5055318;28;20021;-66
2023/03/19 11:02:52;;;;;;;16.00;5.38;;;;;;;14.03;66.15;101309.19;5049304;28;20021;-65
2023/03/19 11:05:22;;;;;;;13.63;5.28;;;;;;;14.06;66.43;101305.88;5052392;28;20029;-65
2023/03/19 11:08:01;;;;;;;14.07;4.90;;;;;;;14.07;65.94;101311.22;5054351;28;20056;-66
2023/03/19 11:10:29;;;;;;;11.82;4.18;;;;;;;14.09;66.02;101314.56;5066788;28;20483;-64
2023/03/19 11:13:24;;;;;;;11.60;4.55;;;;;;;14.11;65.62;101317.06;5070789;28;20036;-66
2023/03/19 11:15:51;;;;;;;10.02;4.30;;;;;;;14.11;65.74;101317.06;5072625;28;20081;-66
2023/03/19 11:18:26;;;;;;;10.15;4.70;;;;;;;14.11;65.74;101312.38;5068739;28;20372;-66
2023/03/19 11:21:05;;;;;;;11.93;5.63;;;;;;;14.09;65.93;101313.72;5072033;28;20028;-65
2023/03/19 11:23:38;;;;;;;13.55;7.38;;;;;;;14.08;66.03;101317.63;5066842;28;20127;-65